Time;durP1;ratioP1;P1;durP2;ratioP2;P2;SDS_P1;SDS_P2;PMS_P1;PMS_P2;Temp;Humidity;BMP_temperature;BMP_pressure;BME280_temperature;BME280_humidity;BME280_pressure;Samples;Min_cycle;Max_cycle;Signal;HPM_P1;HPM_P2
2023/03/21 00:03:00;;;;;;;8.07;6.63;;;;;;;7.68;90.37;101518.59;6200326;28;20233;-72
2023/03/21 00:06:21;;;;;;;8.47;6.87;;;;;;;7.67;90.77;101523.00;6200148;28;20229;-71
2023/03/21 00:09:42;;;;;;;7.57;6.20;;;;;;;7.76;90.54;101513.47;6200582;28;20304;-72
2023/03/21 00:13:04;;;;;;;9.20;7.53;;;;;;;7.75;90.23;101515.28;6198693;28;20233;-71
2023/03/21 00:16:29;;;;;;;7.47;6.07;;;;;;;7.72;89.81;101515.53;6199754;28;20615;-71
2023/03/21 00:19:54;;;;;;;8.87;6.73;;;;;;;7.80;90.38;101517.50;6180034;28;20623;-72
2023/03/21 00:23:15;;;;;;;8.63;7.47;;;;;;;7.77;90.52;101515.16;6199668;28;20233;-72
2023/03/21 00:26:37;;;;;;;8.80;7.00;;;;;;;7.76;90.49;101511.69;6202152;28;20225;-71
2023/03/21 00:29:57;;;;;;;8.40;7.50;;;;;;;7.78;90.71;101512.38;6205090;28;20229;-72
2023/03/21 00:33:20;;;;;;;9.30;8.43;;;;;;;7.84;89.49;101503.13;6178723;28;22021;-71
2023/03/21 00:36:41;;;;;;;9.10;8.17;;;;;;;7.81;89.25;101506.88;6215883;28;20614;-71
2023/03/21 00:40:02;;;;;;;9.77;8.53;;;;;;;7.85;90.10;101515.31;6197980;28;20328;-71
2023/03/21 00:43:29;;;;;;;18.67;8.97;;;;;;;7.92;89.59;101510.34;6202939;28;20237;-72
2023/03/21 00:46:49;;;;;;;8.77;7.87;;;;;;;7.86;90.41;101502.03;6203054;28;21707;-71
2023/03/21 00:50:12;;;;;;;10.30;8.43;;;;;;;7.83;89.99;101501.47;6190854;28;20245;-72
2023/03/21 00:53:33;;;;;;;8.80;7.90;;;;;;;7.77;90.89;101499.38;6182787;28;20251;-72
2023/03/21 00:56:54;;;;;;;11.40;9.90;;;;;;;7.83;90.45;101490.97;6202716;28;20257;-71
2023/03/21 01:00:17;;;;;;;12.37;9.07;;;;;;;7.81;90.79;101492.88;6208746;28;20233;-72
2023/03/21 01:03:41;;;;;;;10.23;9.17;;;;;;;7.83;90.47;101489.16;6211215;28;20240;-71
2023/03/21 01:07:07;;;;;;;11.40;9.27;;;;;;;7.80;91.28;101492.06;6221931;28;20229;-72
2023/03/21 01:10:28;;;;;;;10.37;9.13;;;;;;;7.81;91.90;101490.25;6210102;28;20233;-71
2023/03/21 01:13:48;;;;;;;11.00;9.80;;;;;;;7.82;92.08;101484.03;6208249;28;20499;-71
2023/03/21 01:17:10;;;;;;;10.33;9.07;;;;;;;7.87;91.60;101484.47;6207401;28;20329;-73
2023/03/21 01:20:30;;;;;;;12.40;9.13;;;;;;;7.81;91.13;101483.22;6210601;28;20233;-71
2023/03/21 01:23:52;;;;;;;9.63;8.60;;;;;;;7.79;91.88;101486.94;6194865;28;20666;-71
2023/03/21 01:27:13;;;;;;;11.27;9.03;;;;;;;7.86;91.84;101482.81;6210214;28;20224;-72
2023/03/21 01:30:35;;;;;;;12.20;10.87;;;;;;;7.91;91.10;101475.31;6189961;28;20233;-71
2023/03/21 01:33:57;;;;;;;10.93;9.83;;;;;;;7.92;90.87;101482.25;6203975;28;20221;-72
2023/03/21 01:37:18;;;;;;;11.73;9.83;;;;;;;7.79;92.69;101485.13;6212938;28;20225;-72
2023/03/21 01:40:45;;;;;;;12.63;10.27;;;;;;;7.83;91.63;101481.28;6197779;28;20523;-71
2023/03/21 01:44:18;;;;;;;12.90;8.87;;;;;;;7.85;91.93;101481.16;6198803;28;20228;-71
2023/03/21 01:47:40;;;;;;;13.53;11.73;;;;;;;7.89;91.72;101478.13;6194498;28;20586;-71
2023/03/21 01:51:15;;;;;;;13.83;11.10;;;;;;;7.92;91.63;101484.88;6179404;28;20225;-72
2023/03/21 01:54:48;;;;;;;12.23;10.10;;;;;;;7.87;92.33;101469.53;6205052;28;20240;-72
2023/03/21 01:58:12;;;;;;;13.00;10.50;;;;;;;7.91;91.97;101471.91;6191154;28;20323;-72
2023/03/21 02:01:52;;;;;;;11.93;10.37;;;;;;;7.99;92.04;101464.16;6203915;28;20236;-72
2023/03/21 02:05:19;;;;;;;12.70;11.40;;;;;;;8.02;91.03;101463.88;6200191;28;20237;-72
2023/03/21 02:08:40;;;;;;;12.13;10.97;;;;;;;7.98;91.08;101465.09;6202277;28;20229;-71
2023/03/21 02:12:07;;;;;;;16.13;11.90;;;;;;;7.93;91.93;101462.06;6220698;28;20232;-72
2023/03/21 02:15:30;;;;;;;10.93;9.23;;;;;;;7.92;91.40;101461.22;6195544;28;20233;-71
2023/03/21 02:19:42;;;;;;;11.57;10.40;;;;;;;7.98;91.32;101447.53;6202944;28;20240;-72
2023/03/21 02:23:35;;;;;;;12.20;10.33;;;;;;;7.93;92.54;101455.00;6197559;28;20622;-70
2023/03/21 02:27:06;;;;;;;10.73;9.70;;;;;;;7.98;92.24;101449.34;6177687;28;20247;-72
2023/03/21 02:31:08;;;;;;;12.90;10.90;;;;;;;7.90;92.64;101447.41;6195326;28;20233;-71
2023/03/21 02:34:50;;;;;;;13.93;10.77;;;;;;;7.98;91.44;101444.09;6186497;28;20241;-71
2023/03/21 02:38:17;;;;;;;14.37;12.27;;;;;;;7.94;92.44;101442.69;6206675;28;20229;-71
2023/03/21 02:41:48;;;;;;;14.17;10.87;;;;;;;7.99;91.94;101440.47;6205220;28;20376;-71
2023/03/21 02:45:16;;;;;;;13.87;11.10;;;;;;;7.93;92.10;101441.03;6203282;28;20312;-71
2023/03/21 02:48:45;;;;;;;11.13;9.03;;;;;;;7.96;92.20;101435.50;6217998;28;22276;-72
2023/03/21 02:52:09;;;;;;;12.90;9.50;;;;;;;7.95;92.72;101433.84;6210669;28;20259;-71
2023/03/21 02:55:34;;;;;;;12.37;11.20;;;;;;;8.02;92.30;101440.22;6185567;28;20671;-71
2023/03/21 02:58:59;;;;;;;11.53;9.20;;;;;;;8.00;92.39;101436.88;6219886;28;20638;-71
2023/03/21 03:02:26;;;;;;;12.23;10.27;;;;;;;7.98;92.39;101434.41;6210415;28;20240;-72
2023/03/21 03:05:50;;;;;;;14.30;10.87;;;;;;;8.05;91.77;101427.63;6201124;28;20233;-71
2023/03/21 03:09:24;;;;;;;13.53;10.43;;;;;;;8.09;92.14;101436.06;6202042;28;20260;-71
2023/03/21 03:12:54;;;;;;;13.13;11.73;;;;;;;8.05;91.96;101427.63;6197746;28;20606;-70
2023/03/21 03:16:24;;;;;;;11.50;10.07;;;;;;;8.06;92.26;101433.72;6200644;28;20330;-71
2023/03/21 03:20:00;;;;;;;12.47;10.93;;;;;;;8.04;91.82;101425.97;6218273;28;20240;-71
2023/03/21 03:23:29;;;;;;;13.50;10.27;;;;;;;8.08;92.79;101421.28;6204641;28;20233;-72
2023/03/21 03:26:53;;;;;;;16.87;13.13;;;;;;;8.06;92.30;101418.78;6203695;28;20254;-71
2023/03/21 03:30:17;;;;;;;12.13;10.67;;;;;;;8.08;92.18;101402.88;6204540;28;20555;-71
2023/03/21 03:33:43;;;;;;;12.33;10.00;;;;;;;8.17;91.96;101404.66;6182565;28;20233;-71
2023/03/21 03:37:06;;;;;;;13.27;10.40;;;;;;;8.10;91.99;101408.81;6198014;28;20268;-71
2023/03/21 03:40:35;;;;;;;14.83;13.07;;;;;;;8.09;92.30;101407.16;6188969;28;20228;-71
2023/03/21 03:44:05;;;;;;;11.87;9.23;;;;;;;8.14;92.22;101410.19;6211299;28;20233;-72
2023/03/21 03:47:38;;;;;;;11.30;10.20;;;;;;;8.14;92.01;101410.19;6194056;28;20228;-72
2023/03/21 03:51:07;;;;;;;13.77;10.03;;;;;;;8.10;91.77;101400.94;6202183;28;20772;-72
2023/03/21 03:54:57;;;;;;;12.67;10.77;;;;;;;8.21;91.92;101408.66;6189625;28;20232;-71
2023/03/21 03:58:20;;;;;;;11.63;10.43;;;;;;;8.18;92.03;101412.41;6209153;28;20236;-71
2023/03/21 04:01:41;;;;;;;10.60;9.50;;;;;;;8.27;92.13;101408.13;6202485;28;20225;-72
2023/03/21 04:05:04;;;;;;;11.67;8.43;;;;;;;8.23;91.55;101412.81;6207290;28;20221;-72
2023/03/21 04:08:24;;;;;;;10.47;9.23;;;;;;;8.34;92.34;101411.06;6215670;28;20233;-71
2023/03/21 04:11:49;;;;;;;12.50;10.87;;;;;;;8.36;91.64;101401.22;6208390;28;20338;-72
2023/03/21 04:15:11;;;;;;;12.30;10.33;;;;;;;8.34;91.26;101393.47;6223546;28;20244;-71
2023/03/21 04:18:39;;;;;;;11.07;9.73;;;;;;;8.36;91.54;101398.59;6212140;28;20327;-71
2023/03/21 04:22:01;;;;;;;10.67;8.73;;;;;;;8.45;91.16;101389.84;6208200;28;20232;-72
2023/03/21 04:25:25;;;;;;;13.13;10.07;;;;;;;8.50;90.61;101403.41;6195055;28;20233;-71
2023/03/21 04:28:50;;;;;;;10.57;9.10;;;;;;;8.50;90.40;101401.63;6193476;28;20323;-72
2023/03/21 04:32:32;;;;;;;12.03;10.83;;;;;;;8.35;91.15;101397.75;6200537;28;20521;-71
2023/03/21 04:36:01;;;;;;;14.87;11.50;;;;;;;8.42;91.32;101396.22;6196071;28;20225;-71
2023/03/21 04:39:26;;;;;;;12.47;9.57;;;;;;;8.41;91.66;101394.56;6196627;28;20226;-71
2023/03/21 04:42:48;;;;;;;15.47;11.67;;;;;;;8.40;91.32;101392.06;6204876;28;21046;-71
2023/03/21 04:46:09;;;;;;;13.43;12.03;;;;;;;8.45;91.07;101388.03;6196041;28;20618;-71
2023/03/21 04:49:30;;;;;;;11.87;10.13;;;;;;;8.49;90.85;101385.97;6201037;28;20802;-71
2023/03/21 04:52:51;;;;;;;11.63;10.13;;;;;;;8.40;91.08;101390.25;6191773;28;20237;-71
2023/03/21 04:56:16;;;;;;;10.57;9.47;;;;;;;8.42;91.29;101390.94;6206378;28;20498;-71
2023/03/21 04:59:38;;;;;;;10.67;9.40;;;;;;;8.58;90.57;101390.38;6207147;28;20261;-71
2023/03/21 05:02:59;;;;;;;12.23;10.73;;;;;;;8.63;91.05;101392.56;6197664;28;20316;-71
2023/03/21 05:06:21;;;;;;;13.27;10.40;;;;;;;8.64;90.11;101395.06;6199398;28;20233;-71
2023/03/21 05:09:43;;;;;;;11.87;10.60;;;;;;;8.57;91.06;101389.56;6207794;28;20250;-71
2023/03/21 05:13:06;;;;;;;12.10;10.73;;;;;;;8.58;90.90;101391.19;6178150;28;20615;-72
2023/03/21 05:16:29;;;;;;;14.43;10.93;;;;;;;8.54;90.84;101386.38;6197069;28;20233;-72
2023/03/21 05:19:51;;;;;;;14.97;11.67;;;;;;;8.47;91.97;101395.78;6214953;28;20241;-71
2023/03/21 05:23:12;;;;;;;10.53;9.43;;;;;;;8.56;91.88;101387.91;6169833;28;20505;-71
2023/03/21 05:26:33;;;;;;;11.17;10.00;;;;;;;8.62;91.66;101394.38;6206195;28;20543;-71
2023/03/21 05:30:14;;;;;;;12.87;10.97;;;;;;;8.51;91.18;101391.91;6225386;28;20753;-71
2023/03/21 05:33:35;;;;;;;13.73;12.30;;;;;;;8.50;91.37;101388.47;6207391;28;20751;-71
2023/03/21 05:36:57;;;;;;;14.27;11.73;;;;;;;8.54;92.21;101384.56;6205447;28;20240;-72
2023/03/21 05:40:21;;;;;;;14.53;12.83;;;;;;;8.48;92.15;101385.13;6193453;28;20779;-72
2023/03/21 05:43:43;;;;;;;15.33;10.37;;;;;;;8.53;91.99;101384.72;6205017;28;20233;-71
2023/03/21 05:47:07;;;;;;;15.17;12.17;;;;;;;8.48;92.28;101377.25;6203189;28;20232;-71
2023/03/21 05:50:36;;;;;;;13.77;11.70;;;;;;;8.50;92.40;101377.09;6197096;28;20229;-70
2023/03/21 05:54:06;;;;;;;14.70;13.13;;;;;;;8.57;92.33;101371.13;6177956;28;20233;-71
2023/03/21 05:57:28;;;;;;;14.00;11.60;;;;;;;8.58;92.26;101375.41;6164979;28;20378;-71
2023/03/21 06:00:58;;;;;;;16.10;12.73;;;;;;;8.60;92.13;101379.69;6160415;28;20572;-71
2023/03/21 06:04:27;;;;;;;16.50;14.60;;;;;;;8.64;92.24;101376.63;6181792;28;20229;-70
2023/03/21 06:07:48;;;;;;;16.13;13.97;;;;;;;8.76;91.48;101379.94;6200404;28;20237;-73
2023/03/21 06:11:24;;;;;;;17.57;14.37;;;;;;;8.57;91.53;101371.13;6187861;28;20239;-74
2023/03/21 06:14:49;;;;;;;19.03;13.63;;;;;;;8.70;91.64;101369.97;6217970;28;20242;-74
2023/03/21 06:18:15;;;;;;;12.50;11.20;;;;;;;8.63;92.17;101372.34;6182943;28;22823;-74
2023/03/21 06:21:47;;;;;;;14.37;12.23;;;;;;;8.62;91.29;101365.44;6207190;28;20241;-74
2023/03/21 06:25:09;;;;;;;16.80;13.27;;;;;;;8.52;92.52;101369.91;6201367;28;20225;-74
2023/03/21 06:28:30;;;;;;;20.03;10.97;;;;;;;8.63;92.60;101368.88;6215492;28;20256;-74
2023/03/21 06:31:51;;;;;;;13.53;11.80;;;;;;;8.48;92.03;101366.72;6192457;28;20518;-74
2023/03/21 06:35:12;;;;;;;17.10;11.97;;;;;;;8.58;92.30;101361.44;6209718;28;20232;-74
2023/03/21 06:38:36;;;;;;;14.70;12.77;;;;;;;8.62;92.22;101367.22;6203943;28;22097;-74
2023/03/21 06:41:58;;;;;;;13.67;12.10;;;;;;;8.63;91.96;101361.00;6189315;28;20261;-73
2023/03/21 06:45:19;;;;;;;15.13;12.40;;;;;;;8.49;92.52;101367.56;6212755;28;20507;-74
2023/03/21 06:48:43;;;;;;;14.83;11.43;;;;;;;8.54;92.78;101360.06;6203102;28;20494;-74
2023/03/21 06:52:04;;;;;;;15.33;13.30;;;;;;;8.73;92.01;101361.81;6202649;28;20229;-73
2023/03/21 06:55:27;;;;;;;14.43;13.00;;;;;;;8.77;92.07;101361.38;6201960;28;20536;-79
2023/03/21 06:58:50;;;;;;;18.30;13.93;;;;;;;8.77;91.90;101361.38;6218915;28;20229;-74
2023/03/21 07:02:34;;;;;;;16.97;15.23;;;;;;;8.91;92.11;101360.06;6188122;28;20232;-74
2023/03/21 07:06:06;;;;;;;15.73;14.10;;;;;;;8.77;92.29;101363.19;6198948;28;20227;-73
2023/03/21 07:09:27;;;;;;;16.10;13.93;;;;;;;8.95;91.88;101365.88;6207366;28;20225;-73
2023/03/21 07:12:52;;;;;;;13.43;11.33;;;;;;;8.84;91.95;101372.13;6201073;28;20240;-74
2023/03/21 07:16:16;;;;;;;15.43;13.30;;;;;;;8.87;92.07;101363.97;6196394;28;20271;-74
2023/03/21 07:19:37;;;;;;;18.20;15.30;;;;;;;8.96;91.34;101363.09;6165076;28;20230;-73
2023/03/21 07:22:58;;;;;;;16.00;13.37;;;;;;;9.05;91.20;101364.00;6168648;28;22090;-74
2023/03/21 07:26:21;;;;;;;17.97;14.17;;;;;;;9.04;91.20;101367.63;6169508;28;20237;-74
2023/03/21 07:29:46;;;;;;;15.60;13.60;;;;;;;8.96;91.67;101360.47;6209912;28;20229;-73
2023/03/21 07:33:06;;;;;;;15.50;11.67;;;;;;;9.03;91.13;101368.63;6211179;28;20261;-73
2023/03/21 07:36:27;;;;;;;20.37;15.57;;;;;;;9.14;90.72;101365.78;6196604;28;20640;-73
2023/03/21 07:39:48;;;;;;;17.70;12.80;;;;;;;9.14;90.76;101366.63;6208596;28;20502;-75
2023/03/21 07:43:10;;;;;;;16.67;12.40;;;;;;;9.10;91.33;101359.97;6218410;28;20237;-73
2023/03/21 07:46:33;;;;;;;14.30;12.63;;;;;;;8.98;91.78;101361.16;6210746;28;20626;-73
2023/03/21 07:49:54;;;;;;;18.00;13.87;;;;;;;9.09;91.60;101363.59;6206004;28;20324;-75
2023/03/21 07:53:15;;;;;;;14.43;13.03;;;;;;;9.05;91.25;101358.75;6212769;28;20232;-73
2023/03/21 07:56:36;;;;;;;14.70;12.03;;;;;;;8.98;92.02;101358.53;6201451;28;20248;-74
2023/03/21 07:59:57;;;;;;;16.33;11.40;;;;;;;9.08;92.19;101367.19;6199824;28;20297;-73
2023/03/21 08:03:19;;;;;;;14.37;12.63;;;;;;;9.09;92.29;101360.13;6213413;28;20304;-74
2023/03/21 08:06:40;;;;;;;14.73;12.80;;;;;;;9.13;91.66;101364.94;6207922;28;20833;-74
2023/03/21 08:10:00;;;;;;;14.57;12.27;;;;;;;8.96;91.99;101362.28;6214846;28;20233;-74
2023/03/21 08:13:21;;;;;;;13.17;11.33;;;;;;;8.91;92.29;101363.53;6199705;28;20228;-74
2023/03/21 08:16:42;;;;;;;15.20;13.27;;;;;;;9.01;92.29;101360.03;6209560;28;20513;-73
2023/03/21 08:20:08;;;;;;;15.67;11.77;;;;;;;8.99;92.03;101359.34;6207700;28;20234;-73
2023/03/21 08:23:29;;;;;;;15.17;13.43;;;;;;;8.97;92.65;101364.75;6209640;28;20229;-75
2023/03/21 08:26:50;;;;;;;17.80;13.87;;;;;;;9.14;92.24;101358.72;6201776;28;20233;-73
2023/03/21 08:30:13;;;;;;;20.63;13.47;;;;;;;9.20;92.04;101357.31;6199425;28;20225;-74
2023/03/21 08:33:34;;;;;;;15.27;13.77;;;;;;;9.22;91.35;101350.91;6208550;28;20225;-74
2023/03/21 08:36:56;;;;;;;14.73;11.30;;;;;;;9.19;91.19;101358.28;6204731;28;20229;-74
2023/03/21 08:40:19;;;;;;;16.37;11.37;;;;;;;9.24;91.33;101356.03;6200197;28;20225;-74
2023/03/21 08:43:40;;;;;;;17.63;12.30;;;;;;;9.15;91.94;101352.47;6207481;28;20233;-75
2023/03/21 08:47:01;;;;;;;11.73;10.57;;;;;;;9.21;92.03;101354.53;6167270;28;20600;-74
2023/03/21 08:50:25;;;;;;;15.40;13.77;;;;;;;9.24;92.29;101348.13;6198039;28;20230;-74
2023/03/21 08:53:49;;;;;;;14.37;11.53;;;;;;;9.25;92.49;101361.16;6208305;28;20233;-74
2023/03/21 08:57:10;;;;;;;14.27;11.70;;;;;;;9.31;91.87;101351.00;6212149;28;20237;-74
2023/03/21 09:00:31;;;;;;;17.37;10.23;;;;;;;9.40;91.81;101350.94;6200187;28;20238;-74
2023/03/21 09:03:52;;;;;;;11.17;10.07;;;;;;;9.38;91.68;101355.53;6219199;28;20245;-73
2023/03/21 09:07:16;;;;;;;13.13;9.80;;;;;;;9.44;91.63;101347.03;6214780;28;20232;-73
2023/03/21 09:10:37;;;;;;;12.03;9.97;;;;;;;9.39;91.60;101344.03;6204397;28;20233;-73
2023/03/21 09:13:58;;;;;;;13.33;11.70;;;;;;;9.42;91.03;101349.00;6224965;28;20237;-74
2023/03/21 09:17:20;;;;;;;12.80;11.27;;;;;;;9.51;91.09;101344.63;6215941;28;20236;-73
2023/03/21 09:20:41;;;;;;;11.30;10.03;;;;;;;9.37;91.45;101353.03;6207435;28;20908;-75
2023/03/21 09:24:05;;;;;;;16.17;11.07;;;;;;;9.36;91.54;101354.03;6218901;28;20542;-74
2023/03/21 09:27:27;;;;;;;13.43;12.07;;;;;;;9.48;91.59;101348.41;6214851;28;20323;-74
2023/03/21 09:30:49;;;;;;;14.03;11.87;;;;;;;9.36;91.13;101354.84;6203578;28;20224;-74
2023/03/21 09:34:10;;;;;;;18.70;12.03;;;;;;;9.35;91.57;101352.34;6213770;28;20299;-74
2023/03/21 09:37:32;;;;;;;16.53;12.23;;;;;;;9.42;91.11;101353.44;6217415;28;20256;-74
2023/03/21 09:41:05;;;;;;;17.43;12.33;;;;;;;9.55;90.82;101348.63;6197309;28;20225;-73
2023/03/21 09:44:38;;;;;;;15.33;13.17;;;;;;;9.57;90.76;101338.75;6208006;28;20229;-74
2023/03/21 09:47:59;;;;;;;12.00;10.17;;;;;;;9.56;90.39;101351.09;6213227;28;20221;-73
2023/03/21 09:51:23;;;;;;;16.83;10.97;;;;;;;9.59;90.53;101344.72;6191570;28;21191;-73
2023/03/21 09:54:44;;;;;;;14.67;11.07;;;;;;;9.74;90.31;101339.72;6208557;28;20241;-74
2023/03/21 09:58:14;;;;;;;12.93;10.30;;;;;;;9.72;89.83;101331.16;6197034;28;20228;-75
2023/03/21 10:01:44;;;;;;;17.63;13.90;;;;;;;9.73;90.36;101338.91;6206446;28;21623;-73
2023/03/21 10:05:13;;;;;;;13.80;11.57;;;;;;;9.74;90.23;101331.81;6205306;28;20221;-74
2023/03/21 10:08:37;;;;;;;13.73;11.03;;;;;;;9.75;90.20;101338.75;6194805;28;20234;-73
2023/03/21 10:12:04;;;;;;;12.20;9.83;;;;;;;9.70;90.57;101333.13;6176908;28;20252;-75
2023/03/21 10:15:27;;;;;;;10.90;9.20;;;;;;;9.70;91.56;101333.97;6201283;28;20665;-74
2023/03/21 10:18:50;;;;;;;18.87;12.47;;;;;;;9.60;92.17;101328.75;6213401;28;20833;-74
2023/03/21 10:22:11;;;;;;;16.00;12.17;;;;;;;9.62;91.66;101333.88;6189897;28;21944;-75
2023/03/21 10:25:34;;;;;;;12.63;10.10;;;;;;;9.76;92.02;101324.59;6196934;28;20241;-74
2023/03/21 10:28:58;;;;;;;12.93;8.93;;;;;;;9.67;91.59;101321.09;6204648;28;20287;-74
2023/03/21 10:32:21;;;;;;;12.63;10.97;;;;;;;9.60;92.18;101315.56;6214088;28;21073;-73
2023/03/21 10:35:46;;;;;;;13.50;11.17;;;;;;;9.68;92.31;101314.00;6194742;28;20232;-75
2023/03/21 10:39:21;;;;;;;11.67;9.83;;;;;;;9.63;92.35;101314.44;6214412;28;20237;-75
2023/03/21 10:42:42;;;;;;;12.97;11.70;;;;;;;9.68;92.55;101317.47;6207748;28;20312;-73
2023/03/21 10:46:10;;;;;;;11.33;10.27;;;;;;;9.78;92.69;101318.19;6196206;28;20234;-74
2023/03/21 10:49:32;;;;;;;11.43;9.27;;;;;;;9.71;92.82;101316.34;6192948;28;20228;-74
2023/03/21 10:52:59;;;;;;;10.57;8.47;;;;;;;9.67;92.70;101310.53;6198575;28;20246;-75
2023/03/21 10:56:24;;;;;;;12.53;9.73;;;;;;;9.69;92.71;101308.59;6198895;28;20236;-73
2023/03/21 10:59:52;;;;;;;11.60;9.07;;;;;;;9.82;92.81;101306.38;6211031;28;20651;-74
2023/03/21 11:03:22;;;;;;;10.70;8.70;;;;;;;9.97;92.18;101301.38;6207584;28;20233;-73
2023/03/21 11:06:46;;;;;;;12.07;9.40;;;;;;;9.82;91.97;101300.28;6192045;28;20233;-75
2023/03/21 11:10:15;;;;;;;14.53;10.83;;;;;;;9.91;92.25;101300.19;6202019;28;20261;-74
2023/03/21 11:13:39;;;;;;;10.87;8.70;;;;;;;9.80;92.80;101300.41;6205565;28;20224;-76
2023/03/21 11:17:00;;;;;;;12.47;9.20;;;;;;;9.87;92.35;101305.94;6193600;28;20237;-74
2023/03/21 11:20:21;;;;;;;11.33;10.23;;;;;;;9.74;92.88;101290.47;6196126;28;20233;-75
2023/03/21 11:23:46;;;;;;;17.63;9.60;;;;;;;9.83;92.87;101299.28;6188592;28;20225;-75
2023/03/21 11:27:09;;;;;;;11.53;10.17;;;;;;;9.80;92.65;101289.88;6208362;28;20614;-74
2023/03/21 11:30:29;;;;;;;13.90;9.53;;;;;;;9.94;93.16;101289.31;6191442;28;20229;-74
2023/03/21 11:33:54;;;;;;;9.97;8.97;;;;;;;10.00;92.45;101285.25;6216041;28;20319;-74
2023/03/21 11:37:20;;;;;;;10.73;9.13;;;;;;;10.05;92.47;101288.25;6206908;28;20640;-75
2023/03/21 11:40:52;;;;;;;12.07;8.63;;;;;;;10.08;91.88;101282.69;6195980;28;20232;-74
2023/03/21 11:44:28;;;;;;;14.10;9.83;;;;;;;10.15;91.60;101274.97;6213395;28;20257;-73
2023/03/21 11:47:51;;;;;;;11.27;9.87;;;;;;;10.08;91.84;101274.75;6209890;28;20248;-73
2023/03/21 11:51:21;;;;;;;10.17;9.10;;;;;;;10.00;91.81;101279.97;6189747;28;20507;-73
2023/03/21 11:54:58;;;;;;;11.77;9.73;;;;;;;10.04;92.14;101272.59;6204529;28;20246;-74
2023/03/21 11:58:33;;;;;;;11.93;9.77;;;;;;;10.14;92.24;101270.69;6199993;28;20241;-74
2023/03/21 12:02:08;;;;;;;12.23;10.07;;;;;;;10.17;91.84;101262.44;6203928;28;20228;-73
2023/03/21 12:05:34;;;;;;;12.73;11.47;;;;;;;10.19;91.47;101253.41;6179895;28;20229;-74
2023/03/21 12:09:04;;;;;;;12.83;10.57;;;;;;;10.46;90.53;101252.41;6179058;28;20218;-74
2023/03/21 12:12:36;;;;;;;11.03;8.67;;;;;;;10.41;89.32;101251.22;6203464;28;20224;-74
2023/03/21 12:16:05;;;;;;;9.43;8.50;;;;;;;10.67;88.63;101243.28;6191461;28;20970;-74
2023/03/21 12:19:44;;;;;;;9.13;7.67;;;;;;;10.59;88.28;101239.63;6207115;28;20241;-74
2023/03/21 12:23:35;;;;;;;8.63;7.87;;;;;;;10.65;88.92;101232.88;6211051;28;20233;-73
2023/03/21 12:27:02;;;;;;;14.80;8.47;;;;;;;10.69;88.25;101236.00;6206649;28;20228;-74
2023/03/21 12:30:33;;;;;;;7.47;6.50;;;;;;;10.77;87.03;101225.50;6177377;28;20225;-73
2023/03/21 12:34:08;;;;;;;8.40;7.63;;;;;;;10.63;86.92;101227.75;6209710;28;20221;-74
2023/03/21 12:37:37;;;;;;;11.30;6.70;;;;;;;10.54;87.69;101217.31;6193592;28;20606;-74
2023/03/21 12:41:16;;;;;;;9.13;7.83;;;;;;;10.59;88.10;101220.31;6201689;28;20225;-74
2023/03/21 12:44:40;;;;;;;8.40;7.37;;;;;;;10.55;88.14;101219.81;6205397;28;20257;-74
2023/03/21 12:48:12;;;;;;;6.93;5.90;;;;;;;10.57;88.06;101215.19;6211542;28;20237;-74
2023/03/21 12:51:37;;;;;;;7.13;5.30;;;;;;;10.48;88.23;101213.50;6211006;28;20239;-73
2023/03/21 12:55:05;;;;;;;9.07;5.53;;;;;;;10.46;88.39;101207.56;6212926;28;20237;-74
2023/03/21 12:58:28;;;;;;;4.60;4.20;;;;;;;10.47;88.51;101205.75;6208757;28;20246;-74
2023/03/21 13:01:53;;;;;;;5.00;4.60;;;;;;;10.41;88.74;101193.16;6212161;28;20232;-74
2023/03/21 13:05:19;;;;;;;4.97;4.43;;;;;;;10.35;88.15;101205.22;6214758;28;20245;-76
2023/03/21 13:08:45;;;;;;;6.67;4.97;;;;;;;10.41;88.53;101198.44;6220026;28;20233;-74
2023/03/21 13:12:22;;;;;;;5.87;4.93;;;;;;;10.45;89.11;101192.69;6188723;28;20237;-75
2023/03/21 13:15:53;;;;;;;5.57;4.27;;;;;;;10.42;89.11;101190.38;6196235;28;20229;-75
2023/03/21 13:19:22;;;;;;;4.50;3.83;;;;;;;10.37;88.87;101181.31;6214029;28;20229;-73
2023/03/21 13:22:43;;;;;;;5.37;4.03;;;;;;;10.47;88.56;101182.00;6215509;28;20616;-75
2023/03/21 13:26:09;;;;;;;5.63;4.87;;;;;;;10.50;89.06;101176.41;6204826;28;20938;-74
2023/03/21 13:29:35;;;;;;;5.83;5.17;;;;;;;10.41;89.32;101174.69;6209716;28;20230;-73
2023/03/21 13:33:05;;;;;;;5.77;4.70;;;;;;;10.40;89.55;101171.25;6215574;28;20225;-71
2023/03/21 13:36:29;;;;;;;5.67;5.13;;;;;;;10.47;89.52;101166.97;6208093;28;20251;-73
2023/03/21 13:39:52;;;;;;;5.70;5.07;;;;;;;10.39;89.54;101166.97;6210679;28;20240;-74
2023/03/21 13:43:33;;;;;;;5.33;4.83;;;;;;;10.45;89.59;101166.31;6217265;28;20252;-73
2023/03/21 13:47:01;;;;;;;4.73;4.30;;;;;;;10.50;89.53;101169.31;6183737;28;20320;-74
2023/03/21 13:50:33;;;;;;;5.03;4.53;;;;;;;10.43;89.75;101165.66;6193126;28;20535;-74
2023/03/21 13:54:00;;;;;;;4.77;4.20;;;;;;;10.39;89.75;101161.69;6209909;28;20229;-73
2023/03/21 13:57:37;;;;;;;4.53;3.70;;;;;;;10.40;89.29;101162.50;6172443;28;20233;-74
2023/03/21 14:01:11;;;;;;;4.30;3.90;;;;;;;10.45;89.69;101153.13;6182297;28;20505;-74
2023/03/21 14:04:34;;;;;;;6.13;4.83;;;;;;;10.52;89.34;101153.31;6207015;28;20798;-73
2023/03/21 14:07:58;;;;;;;6.40;5.73;;;;;;;10.41;89.77;101150.94;6192046;28;20599;-73
2023/03/21 14:11:20;;;;;;;6.60;4.73;;;;;;;10.36;89.67;101148.00;6207398;28;20268;-75
2023/03/21 14:14:45;;;;;;;4.73;4.30;;;;;;;10.34;90.63;101139.41;6211259;28;20301;-73
2023/03/21 14:18:06;;;;;;;4.80;4.37;;;;;;;10.36;90.41;101140.91;6215233;28;20316;-74
2023/03/21 14:21:31;;;;;;;5.70;4.60;;;;;;;10.34;90.12;101139.41;6200547;28;20788;-74
2023/03/21 14:24:56;;;;;;;4.47;4.07;;;;;;;10.37;90.76;101134.63;6212602;28;20534;-74
2023/03/21 14:28:19;;;;;;;5.63;4.53;;;;;;;10.27;90.38;101139.22;6199638;28;20324;-73
2023/03/21 14:31:41;;;;;;;6.37;4.93;;;;;;;10.27;91.25;101133.94;6208258;28;20220;-73
2023/03/21 14:35:03;;;;;;;7.23;5.03;;;;;;;10.31;91.20;101137.09;6210081;28;20503;-74
2023/03/21 14:38:27;;;;;;;7.17;4.77;;;;;;;10.16;91.51;101132.38;6206125;28;20229;-72
2023/03/21 14:41:50;;;;;;;5.83;4.30;;;;;;;10.21;91.97;101134.56;6213055;28;20634;-74
2023/03/21 14:45:17;;;;;;;8.70;5.70;;;;;;;10.25;91.81;101126.16;6207193;28;20229;-73
2023/03/21 14:48:38;;;;;;;7.37;6.40;;;;;;;10.17;91.76;101122.63;6210163;28;20233;-75
2023/03/21 14:52:01;;;;;;;12.23;4.83;;;;;;;10.18;90.83;101117.19;6199878;28;20233;-73
2023/03/21 14:55:24;;;;;;;5.87;5.27;;;;;;;10.21;91.46;101116.91;6201020;28;20237;-73
2023/03/21 14:58:46;;;;;;;8.07;5.77;;;;;;;10.26;91.37;101112.00;6212425;28;20262;-73
2023/03/21 15:02:16;;;;;;;5.07;4.57;;;;;;;10.32;91.10;101104.44;6216704;28;20236;-74
2023/03/21 15:05:37;;;;;;;5.73;5.23;;;;;;;10.27;90.69;101097.81;6199533;28;20297;-73
2023/03/21 15:09:01;;;;;;;6.83;5.20;;;;;;;10.22;90.76;101094.81;6219253;28;20448;-74
2023/03/21 15:12:23;;;;;;;6.27;5.40;;;;;;;10.24;91.13;101092.84;6214323;28;20244;-74
2023/03/21 15:15:45;;;;;;;4.23;3.83;;;;;;;10.25;91.62;101083.13;6197252;28;20237;-72
2023/03/21 15:19:07;;;;;;;7.23;4.13;;;;;;;10.32;91.23;101083.31;6196439;28;20237;-74
2023/03/21 15:22:32;;;;;;;4.30;3.67;;;;;;;10.23;91.40;101079.81;6203070;28;20244;-74
2023/03/21 15:25:53;;;;;;;5.37;4.70;;;;;;;10.20;91.46;101080.97;6199428;28;20312;-75
2023/03/21 15:29:18;;;;;;;5.23;4.80;;;;;;;10.23;91.42;101080.66;6213982;28;20558;-74
2023/03/21 15:32:38;;;;;;;5.57;4.93;;;;;;;10.25;91.42;101080.50;6195491;28;20625;-76
2023/03/21 15:36:00;;;;;;;4.20;3.80;;;;;;;10.25;90.47;101098.97;6206313;28;20236;-74
2023/03/21 15:39:22;;;;;;;4.27;3.90;;;;;;;10.27;90.52;101079.34;6218422;28;20229;-74
2023/03/21 15:42:43;;;;;;;3.93;3.53;;;;;;;10.15;89.80;101087.69;6212007;28;20241;-75
2023/03/21 15:46:14;;;;;;;5.03;4.07;;;;;;;10.12;89.51;101074.84;6199321;28;20232;-76
2023/03/21 15:49:41;;;;;;;5.33;4.47;;;;;;;10.19;89.64;101070.56;6199649;28;20249;-76
2023/03/21 15:53:04;;;;;;;3.63;3.33;;;;;;;10.09;89.37;101070.69;6215511;28;20268;-75